createdAt,value
2023-02-02T00:02:02.319Z,13.00
2023-02-02T00:04:31.454Z,12.80
2023-02-02T00:06:58.789Z,14.60
2023-02-02T00:09:28.980Z,12.40
2023-02-02T00:11:56.294Z,12.20
2023-02-02T00:14:23.329Z,15.20
2023-02-02T00:16:51.789Z,12.70
2023-02-02T00:19:20.600Z,13.10
2023-02-02T00:21:48.101Z,12.70
2023-02-02T00:24:18.189Z,12.70
2023-02-02T00:26:46.428Z,12.80
2023-02-02T00:29:18.019Z,15.00
2023-02-02T00:31:44.870Z,13.30
2023-02-02T00:34:12.836Z,14.20
2023-02-02T00:36:39.774Z,11.80
2023-02-02T00:39:06.766Z,15.10
2023-02-02T00:41:33.656Z,14.50
2023-02-02T00:44:17.994Z,14.50
2023-02-02T00:46:45.120Z,15.00
2023-02-02T00:49:12.046Z,15.20
2023-02-02T00:51:39.389Z,15.80
2023-02-02T00:54:06.433Z,13.70
2023-02-02T00:56:33.821Z,13.60
2023-02-02T00:59:00.784Z,15.10
2023-02-02T01:01:27.718Z,15.20
2023-02-02T01:03:56.171Z,14.30
2023-02-02T01:06:23.280Z,16.70
2023-02-02T01:08:50.130Z,13.40
2023-02-02T01:11:17.196Z,12.60
2023-02-02T01:13:43.987Z,14.50
2023-02-02T01:16:12.567Z,13.20
2023-02-02T01:18:40.031Z,14.20
2023-02-02T01:21:09.477Z,11.30
2023-02-02T01:23:37.779Z,12.30
2023-02-02T01:26:06.756Z,11.30
2023-02-02T01:28:33.621Z,11.50
2023-02-02T01:31:06.340Z,16.80
2023-02-02T01:33:33.342Z,12.40
2023-02-02T01:36:00.167Z,14.40
2023-02-02T01:38:27.596Z,14.40
2023-02-02T01:40:56.466Z,13.40
2023-02-02T01:43:27.970Z,12.90
2023-02-02T01:45:56.390Z,14.60
2023-02-02T01:48:25.680Z,13.30
2023-02-02T01:50:56.828Z,17.40
2023-02-02T01:53:24.167Z,15.20
2023-02-02T01:55:53.429Z,13.40
2023-02-02T01:58:24.600Z,15.00
2023-02-02T02:00:52.063Z,11.70
2023-02-02T02:03:22.088Z,14.50
2023-02-02T02:05:52.980Z,13.50
2023-02-02T02:08:24.663Z,13.70
2023-02-02T02:10:52.028Z,12.20
2023-02-02T02:13:21.749Z,15.00
2023-02-02T02:16:14.389Z,16.00
2023-02-02T02:18:51.479Z,12.80
2023-02-02T02:21:54.940Z,14.00
2023-02-02T02:25:12.403Z,13.10
2023-02-02T02:28:12.069Z,11.70
2023-02-02T02:31:09.720Z,14.10
2023-02-02T02:36:11.898Z,12.50
2023-02-02T02:38:44.888Z,13.30
2023-02-02T02:41:17.892Z,13.90
2023-02-02T02:43:50.350Z,11.20
2023-02-02T02:46:17.858Z,10.70
2023-02-02T02:48:47.790Z,11.50
2023-02-02T02:51:47.758Z,8.80
2023-02-02T02:54:23.421Z,12.70
2023-02-02T02:57:08.119Z,12.90
2023-02-02T02:59:47.009Z,10.70
2023-02-02T03:02:31.124Z,17.90
2023-02-02T03:05:09.048Z,14.20
2023-02-02T03:07:40.183Z,15.20
2023-02-02T03:10:11.650Z,14.50
2023-02-02T03:12:46.835Z,15.20
2023-02-02T03:15:15.516Z,17.80
2023-02-02T03:17:43.833Z,19.70
2023-02-02T03:20:12.645Z,17.00
2023-02-02T03:22:39.627Z,21.30
2023-02-02T03:25:07.556Z,20.50
2023-02-02T03:27:35.017Z,18.70
2023-02-02T03:30:02.249Z,20.20
2023-02-02T03:32:29.307Z,17.30
2023-02-02T03:34:56.125Z,15.80
2023-02-02T03:37:23.087Z,17.80
2023-02-02T03:39:49.926Z,16.20
2023-02-02T03:42:16.889Z,20.20
2023-02-02T03:44:43.685Z,16.00
2023-02-02T03:47:10.857Z,18.50
2023-02-02T03:49:37.619Z,17.40
2023-02-02T03:52:05.059Z,12.80
2023-02-02T03:54:32.411Z,20.70
2023-02-02T03:56:59.284Z,21.70
2023-02-02T03:59:26.270Z,19.40
2023-02-02T04:01:53.232Z,21.20
2023-02-02T04:04:20.345Z,20.90
2023-02-02T04:06:47.238Z,17.70
2023-02-02T04:09:14.083Z,21.40
2023-02-02T04:11:40.824Z,20.50
2023-02-02T04:14:07.578Z,15.90
2023-02-02T04:16:37.198Z,18.90
2023-02-02T04:19:04.002Z,20.80
2023-02-02T04:21:31.161Z,23.20
2023-02-02T04:23:58.539Z,16.80
2023-02-02T04:26:26.311Z,19.30
2023-02-02T04:28:53.134Z,16.00
2023-02-02T04:31:20.037Z,18.90
2023-02-02T04:33:46.866Z,23.40
2023-02-02T04:36:13.867Z,19.10
2023-02-02T04:38:40.617Z,17.00
2023-02-02T04:41:11.733Z,18.50
2023-02-02T04:43:39.174Z,15.90
2023-02-02T04:46:06.758Z,18.60
2023-02-02T04:48:33.836Z,14.00
2023-02-02T04:51:04.830Z,15.50
2023-02-02T04:53:32.322Z,18.50
2023-02-02T04:55:59.666Z,27.00
2023-02-02T04:58:26.501Z,16.70
2023-02-02T05:00:53.658Z,17.90
2023-02-02T05:03:21.005Z,20.00
2023-02-02T05:05:48.042Z,19.80
2023-02-02T05:08:14.801Z,21.10
2023-02-02T05:10:43.600Z,16.10
2023-02-02T05:13:10.835Z,14.70
2023-02-02T05:15:37.883Z,16.30
2023-02-02T05:18:04.799Z,16.80
2023-02-02T05:20:31.634Z,14.00
2023-02-02T05:22:58.506Z,10.90
2023-02-02T05:25:25.519Z,20.30
2023-02-02T05:27:52.791Z,18.10
2023-02-02T05:30:20.349Z,19.20
2023-02-02T05:32:47.187Z,12.40
2023-02-02T05:35:14.509Z,18.30
2023-02-02T05:37:43.254Z,15.10
2023-02-02T05:40:12.450Z,14.30
2023-02-02T05:42:39.256Z,19.20
2023-02-02T05:45:07.075Z,21.20
2023-02-02T05:47:35.756Z,19.30
2023-02-02T05:50:03.389Z,14.70
2023-02-02T05:52:38.412Z,15.90
2023-02-02T05:55:05.906Z,16.80
2023-02-02T05:57:32.719Z,18.40
2023-02-02T05:59:59.610Z,14.90
2023-02-02T06:02:26.527Z,14.10
2023-02-02T06:04:53.563Z,17.30
2023-02-02T06:07:20.638Z,14.40
2023-02-02T06:09:47.465Z,19.60
2023-02-02T06:12:14.311Z,17.90
2023-02-02T06:14:41.058Z,16.90
2023-02-02T06:17:08.081Z,18.20
2023-02-02T06:19:34.926Z,15.10
2023-02-02T06:22:01.987Z,15.90
2023-02-02T06:24:30.405Z,15.80
2023-02-02T06:26:57.413Z,13.80
2023-02-02T06:29:24.887Z,9.60
2023-02-02T06:31:51.752Z,13.70
2023-02-02T06:34:18.925Z,15.70
2023-02-02T06:36:45.829Z,11.90
2023-02-02T06:39:12.724Z,16.40
2023-02-02T06:41:40.476Z,11.40
2023-02-02T06:44:07.458Z,11.00
2023-02-02T06:46:34.212Z,15.50
2023-02-02T06:49:00.993Z,11.20
2023-02-02T06:51:28.272Z,11.50
2023-02-02T06:53:56.145Z,9.30
2023-02-02T06:56:24.695Z,8.60
2023-02-02T06:58:51.481Z,12.30
2023-02-02T07:01:18.769Z,8.60
2023-02-02T07:03:49.274Z,10.70
2023-02-02T07:06:21.164Z,12.40
2023-02-02T07:08:57.504Z,9.80
2023-02-02T07:11:30.364Z,13.10
2023-02-02T07:13:57.640Z,10.40
2023-02-02T07:16:24.551Z,11.90
2023-02-02T07:18:51.740Z,11.90
2023-02-02T07:21:21.366Z,11.70
2023-02-02T07:23:48.297Z,14.30
2023-02-02T07:26:16.230Z,14.70
2023-02-02T07:28:43.556Z,15.50
2023-02-02T07:31:19.387Z,14.20
2023-02-02T07:33:47.933Z,14.40
2023-02-02T07:36:17.372Z,16.00
2023-02-02T07:38:44.728Z,17.60
2023-02-02T07:41:11.675Z,15.00
2023-02-02T07:43:39.019Z,13.10
2023-02-02T07:46:08.446Z,12.90
2023-02-02T07:48:35.952Z,14.60
2023-02-02T07:51:04.344Z,13.30
2023-02-02T07:53:31.729Z,14.10
2023-02-02T07:56:08.873Z,13.90
2023-02-02T07:58:35.934Z,11.50
2023-02-02T08:01:05.646Z,9.40
2023-02-02T08:03:32.519Z,10.40
2023-02-02T08:06:00.406Z,9.80
2023-02-02T08:08:27.252Z,8.90
2023-02-02T08:10:55.296Z,10.50
2023-02-02T08:13:22.817Z,10.20
2023-02-02T08:15:49.851Z,8.10
2023-02-02T08:18:17.122Z,8.60
2023-02-02T08:20:44.120Z,10.80
2023-02-02T08:23:15.752Z,9.60
2023-02-02T08:25:42.868Z,7.60
2023-02-02T08:28:09.852Z,10.60
2023-02-02T08:30:37.013Z,6.90
2023-02-02T08:33:03.806Z,7.10
2023-02-02T08:35:31.095Z,6.10
2023-02-02T08:37:57.898Z,6.10
2023-02-02T08:40:25.576Z,8.40
2023-02-02T08:42:56.028Z,7.80
2023-02-02T08:46:02.510Z,9.90
2023-02-02T08:48:12.697Z,8.00
2023-02-02T08:50:39.819Z,6.80
2023-02-02T08:53:06.716Z,8.90
2023-02-02T08:55:33.589Z,8.20
2023-02-02T08:58:02.655Z,10.90
2023-02-02T09:00:29.704Z,8.90
2023-02-02T09:02:56.576Z,10.10
2023-02-02T09:05:24.150Z,10.40
2023-02-02T09:07:51.266Z,9.80
2023-02-02T09:10:19.565Z,9.80
2023-02-02T09:12:46.510Z,12.80
2023-02-02T09:15:13.839Z,10.30
2023-02-02T09:17:40.827Z,15.10
2023-02-02T09:20:09.592Z,11.90
2023-02-02T09:22:36.717Z,10.50
2023-02-02T09:25:03.647Z,8.10
2023-02-02T09:27:30.383Z,8.70
2023-02-02T09:29:57.189Z,11.40
2023-02-02T09:32:24.097Z,9.90
2023-02-02T09:34:50.936Z,10.30
2023-02-02T09:37:17.733Z,9.80
2023-02-02T09:39:45.065Z,11.70
2023-02-02T09:42:41.443Z,10.00
2023-02-02T09:45:14.655Z,9.50
2023-02-02T09:47:55.761Z,7.50
2023-02-02T09:50:33.568Z,7.50
2023-02-02T09:53:06.949Z,12.00
2023-02-02T09:55:39.311Z,10.60
2023-02-02T09:58:14.629Z,10.90
2023-02-02T10:00:47.541Z,9.70
2023-02-02T10:03:21.158Z,10.10
2023-02-02T10:05:56.792Z,11.90
2023-02-02T10:08:35.473Z,9.40
2023-02-02T10:11:06.417Z,9.10
2023-02-02T10:13:39.102Z,9.50
2023-02-02T10:16:17.233Z,9.60
2023-02-02T10:18:49.585Z,7.40
2023-02-02T10:21:25.924Z,5.40
2023-02-02T10:23:54.647Z,5.70
2023-02-02T10:26:23.553Z,7.60
2023-02-02T10:29:10.212Z,4.80
2023-02-02T10:31:50.943Z,7.50
2023-02-02T10:34:28.097Z,7.30
2023-02-02T10:37:13.640Z,6.20
2023-02-02T10:39:54.671Z,5.00
2023-02-02T10:42:34.369Z,5.50
2023-02-02T10:45:04.731Z,5.20
2023-02-02T10:47:34.353Z,6.40
2023-02-02T10:50:20.523Z,5.30
2023-02-02T10:52:50.453Z,5.00
2023-02-02T10:55:26.760Z,4.20
2023-02-02T10:58:01.644Z,4.70
2023-02-02T11:00:36.067Z,5.30
2023-02-02T11:03:04.924Z,3.70
2023-02-02T11:05:51.373Z,4.60
2023-02-02T11:08:20.801Z,5.90
2023-02-02T11:10:51.354Z,5.70
2023-02-02T11:13:26.205Z,7.50
2023-02-02T11:16:13.357Z,5.90
2023-02-02T11:18:40.378Z,7.60
2023-02-02T11:21:21.278Z,7.00
2023-02-02T11:23:56.583Z,6.70
2023-02-02T11:26:24.281Z,7.50
2023-02-02T11:28:53.662Z,6.30
2023-02-02T11:31:36.487Z,7.70
2023-02-02T11:34:23.763Z,7.90
2023-02-02T11:37:14.677Z,10.80
2023-02-02T11:39:42.255Z,10.50
2023-02-02T11:42:16.342Z,10.50
2023-02-02T11:44:44.724Z,10.60
2023-02-02T11:47:22.775Z,9.00
2023-02-02T11:49:51.846Z,8.80
2023-02-02T11:52:23.174Z,9.70
2023-02-02T11:54:53.440Z,11.90
2023-02-02T11:57:23.352Z,12.10
2023-02-02T11:59:51.991Z,10.20
2023-02-02T12:02:32.808Z,10.90
2023-02-02T12:05:34.297Z,10.20
2023-02-02T12:08:02.829Z,9.30
2023-02-02T12:10:36.770Z,11.20
2023-02-02T12:13:10.100Z,9.60
2023-02-02T12:15:48.629Z,9.60
2023-02-02T12:18:38.320Z,12.80
2023-02-02T12:21:08.145Z,10.00
2023-02-02T12:23:52.162Z,11.70
2023-02-02T12:26:27.022Z,11.00
2023-02-02T12:29:12.634Z,11.60
2023-02-02T12:31:54.106Z,10.70
2023-02-02T12:34:31.242Z,12.40
2023-02-02T12:37:04.190Z,9.20
2023-02-02T12:39:45.519Z,9.40
2023-02-02T12:42:42.350Z,11.00
2023-02-02T12:45:26.621Z,9.60
2023-02-02T12:48:04.886Z,8.00
2023-02-02T12:50:39.646Z,9.00
2023-02-02T12:53:28.289Z,7.40
2023-02-02T12:56:05.616Z,8.90
2023-02-02T12:58:40.284Z,6.90
2023-02-02T13:01:24.221Z,5.70
2023-02-02T13:04:10.471Z,5.20
2023-02-02T13:06:55.051Z,5.00
2023-02-02T13:09:30.143Z,4.00
2023-02-02T13:12:03.812Z,4.30
2023-02-02T13:14:36.501Z,5.90
2023-02-02T13:17:08.926Z,5.60
2023-02-02T13:19:39.603Z,4.20
2023-02-02T13:22:11.550Z,3.80
2023-02-02T13:24:43.257Z,4.70
2023-02-02T13:27:16.300Z,5.40
2023-02-02T13:29:48.841Z,5.00
2023-02-02T13:32:22.404Z,4.60
2023-02-02T13:34:53.402Z,3.80
2023-02-02T13:37:27.119Z,4.40
2023-02-02T13:39:59.977Z,4.50
2023-02-02T13:42:38.051Z,6.10
2023-02-02T13:45:18.708Z,7.20
2023-02-02T13:47:50.747Z,5.20
2023-02-02T13:50:22.013Z,5.00
2023-02-02T13:53:17.920Z,7.80
2023-02-02T13:56:04.731Z,7.40
2023-02-02T13:58:54.581Z,8.30
2023-02-02T14:01:23.023Z,5.30
2023-02-02T14:03:56.591Z,7.50
2023-02-02T14:06:25.432Z,5.90
2023-02-02T14:08:56.936Z,5.70
2023-02-02T14:11:29.260Z,6.10
2023-02-02T14:14:17.265Z,5.60
2023-02-02T14:16:51.873Z,10.60
2023-02-02T14:19:42.077Z,8.20
2023-02-02T14:22:21.571Z,8.40
2023-02-02T14:24:51.619Z,9.30
2023-02-02T14:27:54.480Z,7.80
2023-02-02T14:30:27.937Z,6.00
2023-02-02T14:32:55.712Z,8.90
2023-02-02T14:36:00.956Z,6.90
2023-02-02T14:38:45.002Z,9.70
2023-02-02T14:41:40.703Z,6.60
2023-02-02T14:44:08.998Z,9.60
2023-02-02T14:46:48.107Z,6.30
2023-02-02T14:49:19.142Z,5.30
2023-02-02T14:51:55.324Z,7.20
2023-02-02T14:54:27.599Z,9.80
2023-02-02T14:56:58.967Z,8.50
2023-02-02T14:59:29.143Z,7.20
2023-02-02T15:02:03.448Z,8.70
2023-02-02T15:04:31.521Z,6.80
2023-02-02T15:07:18.486Z,7.10
2023-02-02T15:09:46.674Z,7.00
2023-02-02T15:12:28.313Z,6.40
2023-02-02T15:15:03.487Z,7.00
2023-02-02T15:17:44.730Z,5.40
2023-02-02T15:20:21.420Z,5.30
2023-02-02T15:25:26.358Z,6.30
2023-02-02T15:30:25.596Z,3.00
2023-02-02T15:32:54.552Z,2.30
2023-02-02T15:35:26.019Z,3.50
2023-02-02T15:37:59.056Z,2.30
2023-02-02T15:40:27.857Z,2.90
2023-02-02T15:43:00.281Z,3.00
2023-02-02T15:45:39.878Z,2.60
2023-02-02T15:48:11.167Z,4.50
2023-02-02T15:50:39.749Z,5.60
2023-02-02T15:53:07.602Z,7.50
2023-02-02T15:55:37.019Z,5.40
2023-02-02T15:58:05.253Z,4.40
2023-02-02T16:00:38.063Z,5.00
2023-02-02T16:03:11.725Z,5.40
2023-02-02T16:05:48.595Z,4.30
2023-02-02T16:10:46.589Z,10.10
2023-02-02T16:13:26.471Z,8.50
2023-02-02T16:15:59.876Z,7.20
2023-02-02T16:18:27.307Z,7.50
2023-02-02T16:20:55.514Z,4.50
2023-02-02T16:23:28.891Z,3.90
2023-02-02T16:25:59.475Z,3.80
2023-02-02T16:28:26.902Z,4.60
2023-02-02T16:30:55.271Z,4.50
2023-02-02T16:33:37.909Z,8.70
2023-02-02T16:36:12.395Z,5.20
2023-02-02T16:38:39.747Z,5.90
2023-02-02T16:41:11.467Z,6.50
2023-02-02T16:43:39.559Z,6.10
2023-02-02T16:46:09.077Z,6.60
2023-02-02T16:48:38.618Z,6.50
2023-02-02T16:51:22.593Z,8.20
2023-02-02T16:53:58.014Z,7.20
2023-02-02T16:56:30.336Z,9.20
2023-02-02T16:58:59.680Z,5.90
2023-02-02T17:01:36.982Z,8.70
2023-02-02T17:04:05.044Z,7.20
2023-02-02T17:06:50.085Z,7.90
2023-02-02T17:12:01.241Z,8.10
2023-02-02T17:14:32.039Z,9.60
2023-02-02T17:16:59.360Z,10.00
2023-02-02T17:19:29.302Z,10.20
2023-02-02T17:21:56.372Z,9.00
2023-02-02T17:24:23.146Z,12.70
2023-02-02T17:26:50.050Z,11.10
2023-02-02T17:29:25.325Z,8.50
2023-02-02T17:31:53.527Z,10.50
2023-02-02T17:34:20.419Z,8.00
2023-02-02T17:36:47.846Z,9.90
2023-02-02T17:39:14.638Z,8.20
2023-02-02T17:41:41.885Z,8.10
2023-02-02T17:44:11.433Z,9.20
2023-02-02T17:46:40.105Z,10.20
2023-02-02T17:49:07.674Z,11.10
2023-02-02T17:51:41.192Z,8.70
2023-02-02T17:54:13.377Z,8.00
2023-02-02T17:56:40.390Z,10.00
2023-02-02T17:59:07.206Z,7.70
2023-02-02T18:01:36.993Z,8.20
2023-02-02T18:04:06.881Z,8.90
2023-02-02T18:06:33.671Z,8.50
2023-02-02T18:09:00.672Z,10.50
2023-02-02T18:11:27.610Z,8.20
2023-02-02T18:13:54.829Z,11.20
2023-02-02T18:16:21.625Z,8.70
2023-02-02T18:18:48.387Z,9.40
2023-02-02T18:21:15.842Z,9.90
2023-02-02T18:23:42.695Z,8.90
2023-02-02T18:26:14.958Z,9.50
2023-02-02T18:28:41.922Z,8.70
2023-02-02T18:31:12.383Z,8.40
2023-02-02T18:33:40.562Z,8.80
2023-02-02T18:36:13.354Z,8.30
2023-02-02T18:38:42.051Z,8.30
2023-02-02T18:41:09.062Z,8.80
2023-02-02T18:43:35.915Z,8.10
2023-02-02T18:46:06.230Z,8.70
2023-02-02T18:48:33.594Z,8.60
2023-02-02T18:51:00.572Z,7.30
2023-02-02T18:53:27.372Z,8.10
2023-02-02T18:55:54.378Z,8.00
2023-02-02T18:58:21.218Z,7.30
2023-02-02T19:00:49.227Z,6.90
2023-02-02T19:03:15.971Z,7.40
2023-02-02T19:06:00.585Z,6.00
2023-02-02T19:08:27.412Z,6.50
2023-02-02T19:11:00.365Z,5.70
2023-02-02T19:13:28.874Z,6.90
2023-02-02T19:15:56.334Z,7.70
2023-02-02T19:18:25.127Z,5.70
2023-02-02T19:20:52.814Z,4.60
2023-02-02T19:23:23.206Z,6.40
2023-02-02T19:25:54.074Z,7.30
2023-02-02T19:28:26.324Z,6.90
2023-02-02T19:30:54.312Z,5.40
2023-02-02T19:33:22.098Z,7.80
2023-02-02T19:35:53.048Z,5.30
2023-02-02T19:38:27.054Z,6.60
2023-02-02T19:40:53.852Z,6.10
2023-02-02T19:43:28.055Z,5.90
2023-02-02T19:45:55.970Z,5.70
2023-02-02T19:48:24.531Z,5.30
2023-02-02T19:50:51.815Z,6.10
2023-02-02T19:53:24.091Z,5.20
2023-02-02T19:55:52.118Z,7.70
2023-02-02T19:58:23.099Z,4.60
2023-02-02T20:00:52.135Z,5.10
2023-02-02T20:03:21.797Z,7.20
2023-02-02T20:05:50.963Z,7.10
2023-02-02T20:08:25.491Z,6.10
2023-02-02T20:10:53.634Z,5.70
2023-02-02T20:13:23.241Z,5.90
2023-02-02T20:15:51.565Z,5.00
2023-02-02T20:18:23.426Z,7.70
2023-02-02T20:20:53.251Z,10.10
2023-02-02T20:23:40.933Z,5.70
2023-02-02T20:26:21.382Z,10.40
2023-02-02T20:28:49.687Z,7.30
2023-02-02T20:31:21.958Z,8.60
2023-02-02T20:33:51.953Z,9.80
2023-02-02T20:36:28.175Z,6.60
2023-02-02T20:38:55.385Z,8.50
2023-02-02T20:41:24.538Z,7.40
2023-02-02T20:43:51.300Z,8.10
2023-02-02T20:46:18.642Z,7.70
2023-02-02T20:48:47.834Z,8.00
2023-02-02T20:51:15.770Z,7.60
2023-02-02T20:53:42.801Z,9.70
2023-02-02T20:56:09.877Z,9.80
2023-02-02T20:58:36.745Z,8.20
2023-02-02T21:01:05.777Z,10.70
2023-02-02T21:03:34.122Z,10.50
2023-02-02T21:06:01.200Z,10.80
2023-02-02T21:08:28.636Z,7.60
2023-02-02T21:10:55.407Z,10.00
2023-02-02T21:13:22.207Z,10.50
2023-02-02T21:15:49.379Z,10.90
2023-02-02T21:18:16.195Z,10.00
2023-02-02T21:20:43.047Z,9.70
2023-02-02T21:23:10.290Z,9.60
2023-02-02T21:25:37.239Z,9.30
2023-02-02T21:28:04.154Z,9.00
2023-02-02T21:30:31.478Z,12.70
2023-02-02T21:32:59.394Z,13.00
2023-02-02T21:35:27.768Z,10.30
2023-02-02T21:37:57.609Z,11.50
2023-02-02T21:40:30.500Z,9.80
2023-02-02T21:42:58.923Z,9.80
2023-02-02T21:45:34.556Z,9.70
2023-02-02T21:48:03.418Z,12.10
2023-02-02T21:50:33.256Z,9.70
2023-02-02T21:53:14.054Z,12.50
2023-02-02T21:55:41.459Z,10.70
2023-02-02T21:58:18.967Z,9.40
2023-02-02T22:00:45.884Z,8.50
2023-02-02T22:03:28.608Z,9.90
2023-02-02T22:06:00.725Z,12.00
2023-02-02T22:08:27.964Z,10.50
2023-02-02T22:10:54.798Z,11.30
2023-02-02T22:13:24.941Z,11.90
2023-02-02T22:15:53.941Z,9.90
2023-02-02T22:18:23.063Z,10.20
2023-02-02T22:20:50.840Z,10.50
2023-02-02T22:23:20.771Z,13.60
2023-02-02T22:25:49.556Z,11.10
2023-02-02T22:28:26.138Z,8.90
2023-02-02T22:30:54.685Z,11.90
2023-02-02T22:33:23.201Z,9.90
2023-02-02T22:35:50.016Z,8.80
2023-02-02T22:38:20.708Z,8.20
2023-02-02T22:40:48.737Z,7.50
2023-02-02T22:43:17.278Z,9.40
2023-02-02T22:45:44.741Z,9.30
2023-02-02T22:48:11.648Z,7.90
2023-02-02T22:50:38.518Z,9.40
2023-02-02T22:53:06.241Z,7.90
2023-02-02T22:55:34.190Z,10.40
2023-02-02T22:58:01.438Z,7.80
2023-02-02T23:00:30.280Z,8.40
2023-02-02T23:02:57.674Z,8.20
2023-02-02T23:05:26.910Z,9.00
2023-02-02T23:07:53.990Z,10.00
2023-02-02T23:10:23.168Z,9.10
2023-02-02T23:12:50.806Z,10.60
2023-02-02T23:15:19.382Z,9.00
2023-02-02T23:17:46.285Z,9.60
2023-02-02T23:20:15.897Z,9.30
2023-02-02T23:22:42.983Z,10.30
2023-02-02T23:25:10.728Z,10.90
2023-02-02T23:27:37.702Z,9.90
2023-02-02T23:30:05.073Z,10.00
2023-02-02T23:32:32.231Z,8.50
2023-02-02T23:34:58.986Z,9.50
2023-02-02T23:37:25.713Z,6.90
2023-02-02T23:39:52.538Z,9.70
2023-02-02T23:42:19.279Z,10.30
2023-02-02T23:44:46.196Z,10.00
2023-02-02T23:47:13.310Z,10.00
2023-02-02T23:49:40.943Z,10.40
2023-02-02T23:52:07.942Z,9.30
2023-02-02T23:54:35.059Z,8.60
2023-02-02T23:57:02.606Z,9.20
2023-02-02T23:59:29.928Z,7.20
